createdAt,value
2022-09-30T00:04:52.677Z,26.95
2022-09-30T00:09:57.242Z,24.48
2022-09-30T00:14:59.757Z,28.38
2022-09-30T00:20:02.442Z,22.45
2022-09-30T00:25:06.730Z,22.52
2022-09-30T00:30:09.698Z,25.23
2022-09-30T00:35:12.102Z,25.70
2022-09-30T00:40:15.901Z,28.92
2022-09-30T00:45:18.751Z,23.55
2022-09-30T00:50:27.172Z,22.10
2022-09-30T00:55:36.904Z,29.10
2022-09-30T01:00:39.398Z,31.15
2022-09-30T01:05:42.071Z,28.38
2022-09-30T01:10:46.275Z,24.92
2022-09-30T01:15:57.385Z,28.95
2022-09-30T01:21:14.210Z,24.52
2022-09-30T01:26:27.075Z,27.65
2022-09-30T01:31:41.655Z,26.42
2022-09-30T01:36:50.312Z,23.63
2022-09-30T01:41:55.061Z,29.15
2022-09-30T01:47:02.534Z,23.50
2022-09-30T01:52:07.789Z,26.05
2022-09-30T01:57:12.937Z,26.13
2022-09-30T02:02:19.543Z,26.35
2022-09-30T02:07:25.068Z,30.13
2022-09-30T02:12:28.968Z,28.05
2022-09-30T02:17:34.910Z,26.70
2022-09-30T02:22:41.720Z,28.42
2022-09-30T02:27:47.737Z,25.08
2022-09-30T02:32:53.624Z,24.67
2022-09-30T02:37:59.198Z,24.23
2022-09-30T02:43:03.141Z,20.65
2022-09-30T02:48:12.621Z,23.50
2022-09-30T02:53:18.844Z,22.25
2022-09-30T02:58:22.256Z,25.85
2022-09-30T03:03:28.541Z,26.23
2022-09-30T03:08:31.216Z,26.20
2022-09-30T03:13:45.435Z,21.50
2022-09-30T03:23:57.685Z,21.85
2022-09-30T03:29:04.337Z,21.52
2022-09-30T03:34:11.673Z,20.27
2022-09-30T03:39:23.173Z,21.88
2022-09-30T03:44:29.077Z,24.05
2022-09-30T03:49:33.271Z,22.65
2022-09-30T03:54:45.133Z,25.35
2022-09-30T03:59:47.505Z,28.15
2022-09-30T04:04:49.939Z,28.90
2022-09-30T04:09:53.596Z,29.85
2022-09-30T04:19:58.076Z,27.70
2022-09-30T04:25:01.701Z,24.73
2022-09-30T04:35:06.624Z,24.40
2022-09-30T04:40:10.850Z,26.57
2022-09-30T04:45:13.945Z,31.73
2022-09-30T04:50:16.318Z,31.30
2022-09-30T04:55:19.967Z,32.30
2022-09-30T05:05:24.854Z,31.80
2022-09-30T05:10:28.559Z,34.28
2022-09-30T05:20:33.782Z,35.08
2022-09-30T05:25:37.478Z,34.60
2022-09-30T05:35:42.366Z,37.38
2022-09-30T05:40:46.001Z,37.83
2022-09-30T05:45:53.150Z,39.55
2022-09-30T05:50:56.078Z,39.90
2022-09-30T05:56:00.305Z,40.23
2022-09-30T06:01:12.056Z,43.50
2022-09-30T06:06:15.380Z,38.85
2022-09-30T06:11:20.312Z,42.50
2022-09-30T06:16:23.992Z,40.50
2022-09-30T06:21:26.449Z,40.78
2022-09-30T06:26:30.073Z,43.95
2022-09-30T06:36:34.686Z,38.28
2022-09-30T06:41:39.691Z,43.67
2022-09-30T06:46:53.266Z,38.60
2022-09-30T06:51:56.574Z,39.58
2022-09-30T06:57:00.265Z,42.03
2022-09-30T07:02:02.677Z,44.78
2022-09-30T07:07:05.050Z,37.22
2022-09-30T07:12:08.714Z,26.48
2022-09-30T07:17:11.149Z,20.15
2022-09-30T07:22:29.746Z,18.33
2022-09-30T07:27:33.974Z,16.83
2022-09-30T07:32:36.652Z,15.93
2022-09-30T07:37:39.112Z,16.27
2022-09-30T07:42:45.760Z,15.40
2022-09-30T07:47:53.279Z,16.30
2022-09-30T07:52:56.301Z,14.45
2022-09-30T07:58:01.509Z,15.43
2022-09-30T08:03:03.825Z,15.90
2022-09-30T08:08:06.958Z,14.37
2022-09-30T08:13:13.714Z,13.80
2022-09-30T08:18:17.099Z,14.20
2022-09-30T08:23:19.409Z,15.05
2022-09-30T08:28:25.828Z,14.10
2022-09-30T08:33:28.933Z,15.02
2022-09-30T08:43:40.539Z,14.07
2022-09-30T08:48:46.931Z,13.60
2022-09-30T08:53:49.889Z,13.80
2022-09-30T08:58:57.014Z,13.32
2022-09-30T09:04:00.307Z,15.18
2022-09-30T09:09:15.401Z,15.77
2022-09-30T09:14:22.566Z,16.90
2022-09-30T09:19:26.606Z,14.88
2022-09-30T09:24:30.233Z,15.80
2022-09-30T09:29:38.745Z,16.27
2022-09-30T09:34:41.899Z,16.25
2022-09-30T09:39:54.757Z,16.40
2022-09-30T09:45:01.314Z,16.13
2022-09-30T09:50:04.718Z,16.52
2022-09-30T09:55:09.469Z,16.27
2022-09-30T10:00:40.703Z,15.65
2022-09-30T10:05:43.365Z,15.98
2022-09-30T10:10:47.640Z,14.85
2022-09-30T10:15:52.487Z,14.45
2022-09-30T10:20:56.738Z,14.68
2022-09-30T10:26:00.944Z,15.13
2022-09-30T10:31:06.601Z,14.32
2022-09-30T10:36:10.735Z,13.57
2022-09-30T10:41:13.321Z,14.98
2022-09-30T10:46:26.515Z,15.30
2022-09-30T10:51:33.700Z,14.57
2022-09-30T10:56:38.778Z,14.30
2022-09-30T11:01:45.881Z,14.10
2022-09-30T11:06:50.799Z,14.73
2022-09-30T11:11:56.161Z,13.95
2022-09-30T11:17:07.255Z,14.18
2022-09-30T11:22:22.458Z,13.57
2022-09-30T11:27:29.702Z,14.27
2022-09-30T11:32:40.694Z,14.00
2022-09-30T11:37:50.252Z,14.68
2022-09-30T11:42:56.123Z,14.65
2022-09-30T11:48:11.316Z,14.13
2022-09-30T11:53:19.710Z,14.00
2022-09-30T11:58:40.542Z,15.27
2022-09-30T12:03:47.307Z,14.82
2022-09-30T12:08:51.418Z,14.55
2022-09-30T12:13:56.222Z,15.70
2022-09-30T12:19:03.802Z,15.10
2022-09-30T12:24:11.398Z,15.45
2022-09-30T12:29:34.281Z,15.82
2022-09-30T12:34:44.172Z,13.17
2022-09-30T12:39:54.415Z,13.82
2022-09-30T12:45:20.642Z,14.63
2022-09-30T12:50:28.442Z,15.38
2022-09-30T12:55:32.622Z,15.63
2022-09-30T13:00:37.642Z,14.27
2022-09-30T13:05:57.775Z,14.55
2022-09-30T13:11:05.850Z,16.85
2022-09-30T13:16:10.363Z,15.50
2022-09-30T13:21:23.889Z,16.08
2022-09-30T13:26:39.221Z,14.45
2022-09-30T13:31:56.507Z,15.20
2022-09-30T13:36:59.781Z,13.90
2022-09-30T13:42:07.227Z,12.80
2022-09-30T13:47:16.101Z,13.10
2022-09-30T13:52:21.083Z,12.82
2022-09-30T13:57:28.698Z,12.55
2022-09-30T14:02:43.633Z,10.23
2022-09-30T14:07:54.923Z,10.27
2022-09-30T14:13:06.046Z,9.63
2022-09-30T14:18:23.246Z,11.13
2022-09-30T14:23:25.937Z,6.97
2022-09-30T14:28:33.103Z,7.20
2022-09-30T14:33:36.353Z,7.10
2022-09-30T14:38:38.790Z,5.88
2022-09-30T14:43:44.204Z,5.57
2022-09-30T14:48:48.500Z,6.38
2022-09-30T14:53:54.608Z,5.65
2022-09-30T14:58:59.709Z,6.15
2022-09-30T15:04:03.874Z,5.45
2022-09-30T15:09:07.623Z,3.83
2022-09-30T15:14:17.717Z,3.40
2022-09-30T15:19:22.570Z,3.13
2022-09-30T15:24:26.087Z,3.63
2022-09-30T15:29:30.063Z,3.88
2022-09-30T15:34:34.150Z,4.65
2022-09-30T15:39:56.148Z,4.63
2022-09-30T15:45:00.117Z,4.45
2022-09-30T15:50:02.530Z,4.18
2022-09-30T15:55:19.863Z,4.00
2022-09-30T16:00:38.341Z,3.33
2022-09-30T16:05:41.909Z,3.58
2022-09-30T16:10:49.298Z,3.40
2022-09-30T16:15:54.113Z,3.60
2022-09-30T16:20:57.041Z,3.20
2022-09-30T16:26:19.119Z,4.10
2022-09-30T16:31:23.335Z,4.28
2022-09-30T16:36:25.773Z,3.63
2022-09-30T16:41:28.705Z,4.40
2022-09-30T16:46:33.130Z,4.55
2022-09-30T16:51:35.710Z,5.13
2022-09-30T16:56:38.061Z,4.60
2022-09-30T17:01:42.161Z,5.30
2022-09-30T17:06:44.970Z,5.38
2022-09-30T17:11:47.446Z,6.32
2022-09-30T17:16:51.917Z,5.87
2022-09-30T17:21:54.282Z,7.15
2022-09-30T17:26:56.689Z,6.78
2022-09-30T17:32:00.514Z,6.88
2022-09-30T17:37:02.977Z,5.75
2022-09-30T17:42:22.925Z,5.40
2022-09-30T17:47:26.886Z,5.47
2022-09-30T17:52:34.256Z,5.18
2022-09-30T17:57:39.882Z,5.05
2022-09-30T18:02:44.690Z,5.75
2022-09-30T18:07:47.370Z,5.38
2022-09-30T18:12:51.760Z,5.63
2022-09-30T18:17:55.541Z,6.22
2022-09-30T18:22:57.976Z,6.63
2022-09-30T18:28:00.936Z,5.68
2022-09-30T18:33:07.185Z,6.10
2022-09-30T18:38:09.809Z,6.53
2022-09-30T18:43:13.254Z,6.17
2022-09-30T18:53:20.259Z,5.32
2022-09-30T18:58:22.602Z,5.13
2022-09-30T19:03:29.194Z,5.38
2022-09-30T19:08:34.258Z,5.07
2022-09-30T19:13:37.353Z,5.15
2022-09-30T19:18:40.238Z,4.78
2022-09-30T19:23:44.061Z,4.60
2022-09-30T19:28:46.829Z,3.83
2022-09-30T19:33:56.432Z,3.83
2022-09-30T19:39:12.205Z,4.32
2022-09-30T19:44:18.626Z,3.85
2022-09-30T19:49:21.598Z,3.80
2022-09-30T19:54:37.691Z,3.55
2022-09-30T19:59:43.417Z,3.85
2022-09-30T20:04:45.977Z,3.95
2022-09-30T20:09:49.717Z,4.07
2022-09-30T20:15:09.730Z,3.83
2022-09-30T20:20:28.721Z,3.90
2022-09-30T20:25:32.409Z,4.28
2022-09-30T20:30:37.967Z,3.88
2022-09-30T20:35:40.298Z,3.90
2022-09-30T20:40:44.014Z,3.95
2022-09-30T20:45:53.713Z,4.10
2022-09-30T20:50:56.088Z,4.03
2022-09-30T20:56:01.027Z,3.78
2022-09-30T21:01:04.448Z,3.75
2022-09-30T21:11:10.616Z,3.20
2022-09-30T21:16:15.042Z,3.13
2022-09-30T21:21:17.970Z,3.38
2022-09-30T21:26:21.866Z,2.88
2022-09-30T21:31:25.308Z,3.13
2022-09-30T21:36:28.205Z,3.50
2022-09-30T21:41:33.309Z,2.67
2022-09-30T21:46:36.199Z,3.05
2022-09-30T21:51:39.690Z,2.73
2022-09-30T21:56:43.975Z,3.10
2022-09-30T22:01:46.364Z,3.20
2022-09-30T22:06:48.763Z,3.47
2022-09-30T22:11:52.927Z,3.83
2022-09-30T22:16:55.759Z,3.95
2022-09-30T22:21:58.318Z,4.22
2022-09-30T22:27:02.037Z,4.20
2022-09-30T22:32:04.575Z,4.38
2022-09-30T22:37:24.346Z,3.90
2022-09-30T22:42:29.208Z,4.15
2022-09-30T22:47:31.743Z,4.45
2022-09-30T22:52:34.117Z,4.20
2022-09-30T22:57:37.793Z,4.65
2022-09-30T23:02:40.222Z,4.25
2022-09-30T23:07:42.591Z,4.73
2022-09-30T23:12:47.088Z,4.32
2022-09-30T23:17:50.029Z,5.50
2022-09-30T23:22:52.381Z,5.68
2022-09-30T23:27:56.417Z,5.10
2022-09-30T23:32:58.834Z,5.90
2022-09-30T23:38:01.432Z,5.85
2022-09-30T23:43:05.193Z,7.00
2022-09-30T23:48:07.607Z,7.25
2022-09-30T23:53:10.203Z,7.45
2022-09-30T23:58:14.674Z,7.90
